Time;durP1;ratioP1;P1;durP2;ratioP2;P2;SDS_P1;SDS_P2;PMS_P1;PMS_P2;Temp;Humidity;BMP_temperature;BMP_pressure;BME280_temperature;BME280_humidity;BME280_pressure;Samples;Min_cycle;Max_cycle;Signal;HPM_P1;HPM_P2
2022/09/06 00:02:21;;;;;;;5.35;1.90;;;;;;;20.99;50.43;99771.81;12184224;19;20015;-80
2022/09/06 00:06:23;;;;;;;5.43;1.92;;;;;;;20.88;51.41;99774.03;12217333;19;20015;-79
2022/09/06 00:10:25;;;;;;;3.55;2.30;;;;;;;20.79;51.98;99774.00;12220968;19;20031;-80
2022/09/06 00:14:27;;;;;;;2.90;1.90;;;;;;;20.71;52.44;99767.19;12196885;19;20117;-79
2022/09/06 00:18:29;;;;;;;2.67;1.80;;;;;;;20.67;52.76;99752.16;12221060;19;20066;-79
2022/09/06 00:22:31;;;;;;;2.78;1.80;;;;;;;20.66;52.91;99758.91;12220066;19;20337;-80
2022/09/06 00:26:32;;;;;;;2.47;1.70;;;;;;;20.67;53.23;99756.91;12199257;19;20456;-80
2022/09/06 00:30:34;;;;;;;3.13;2.00;;;;;;;20.70;53.50;99759.09;12226320;19;20011;-80
2022/09/06 00:34:35;;;;;;;5.57;2.00;;;;;;;20.71;53.27;99750.38;12220155;19;20014;-80
2022/09/06 00:38:38;;;;;;;5.60;2.15;;;;;;;20.74;53.22;99750.91;12200929;19;20031;-79
2022/09/06 00:42:40;;;;;;;4.10;2.30;;;;;;;20.76;52.74;99754.19;12217180;19;20026;-79
2022/09/06 00:46:45;;;;;;;2.47;1.83;;;;;;;20.78;52.38;99743.50;12220382;19;20030;-79
2022/09/06 00:50:50;;;;;;;6.18;2.05;;;;;;;20.78;52.74;99738.72;12197629;19;20062;-79
2022/09/06 00:54:52;;;;;;;3.20;2.05;;;;;;;20.76;52.70;99734.59;12218077;19;20014;-79
2022/09/06 00:58:54;;;;;;;3.42;2.08;;;;;;;20.74;52.50;99742.50;12218936;19;20094;-79
2022/09/06 01:02:55;;;;;;;2.35;1.80;;;;;;;20.68;52.21;99751.00;12191168;19;20550;-78
2022/09/06 01:07:28;;;;;;;5.45;1.88;;;;;;;20.58;52.89;99754.06;12212760;19;20414;-79
2022/09/06 01:11:40;;;;;;;3.90;2.28;;;;;;;20.51;52.51;99761.22;12191877;19;20023;-79
2022/09/06 01:16:10;;;;;;;4.43;2.03;;;;;;;20.45;53.41;99768.91;12206471;19;20021;-80
2022/09/06 01:20:37;;;;;;;4.85;2.00;;;;;;;20.40;53.74;99767.06;12194832;19;20547;-80
2022/09/06 01:24:55;;;;;;;2.50;1.90;;;;;;;20.40;54.58;99781.03;12213391;19;20070;-79
2022/09/06 01:28:57;;;;;;;4.20;2.20;;;;;;;20.41;54.27;99793.91;12212681;19;20013;-79
2022/09/06 01:33:02;;;;;;;2.87;1.87;;;;;;;20.42;53.88;99797.53;12196930;19;20078;-79
2022/09/06 01:37:15;;;;;;;3.15;2.00;;;;;;;20.47;53.53;99798.25;12206616;19;20524;-79
2022/09/06 01:41:16;;;;;;;2.70;2.00;;;;;;;20.52;53.97;99796.47;12189122;19;20079;-80
2022/09/06 01:45:26;;;;;;;3.58;2.00;;;;;;;20.45;55.01;99831.31;12212944;19;20094;-80
2022/09/06 01:49:46;;;;;;;6.38;2.53;;;;;;;20.25;56.76;99971.66;12213349;19;20007;-78
2022/09/06 01:54:06;;;;;;;8.13;3.13;;;;;;;19.85;57.44;99954.56;12190176;19;20455;-79
2022/09/06 01:58:35;;;;;;;6.63;3.33;;;;;;;19.61;58.67;99951.06;12216444;19;20017;-78
2022/09/06 02:02:46;;;;;;;9.07;3.47;;;;;;;19.56;58.71;99933.22;12188207;19;20007;-79
2022/09/06 02:06:59;;;;;;;7.97;4.03;;;;;;;19.48;59.40;99931.16;12216776;19;20010;-79
2022/09/06 02:11:03;;;;;;;5.38;3.42;;;;;;;19.55;59.80;99937.16;12217204;19;20134;-80
2022/09/06 02:15:10;;;;;;;7.45;3.40;;;;;;;19.63;60.63;99923.59;12196535;19;20059;-78
2022/09/06 02:19:34;;;;;;;7.07;2.83;;;;;;;19.71;62.00;99925.75;12219309;19;20662;-79
2022/09/06 02:23:41;;;;;;;5.15;2.80;;;;;;;19.79;62.30;99908.25;12196809;19;20014;-79
2022/09/06 02:27:43;;;;;;;10.52;3.20;;;;;;;19.86;63.14;99891.88;12222056;19;20334;-79
2022/09/06 02:31:59;;;;;;;5.33;2.40;;;;;;;19.95;63.77;99870.44;12250797;19;20005;-80
2022/09/06 02:36:05;;;;;;;4.40;2.53;;;;;;;19.98;65.12;99852.22;12245148;19;20021;-81
2022/09/06 02:40:09;;;;;;;3.80;2.38;;;;;;;20.09;65.63;99841.66;12265557;19;20034;-79
2022/09/06 02:44:10;;;;;;;4.50;2.22;;;;;;;20.20;64.83;99851.50;12225171;19;20014;-80
2022/09/06 02:48:13;;;;;;;3.40;2.03;;;;;;;20.31;64.93;99863.28;12217390;19;20127;-79
2022/09/06 02:52:14;;;;;;;2.95;2.05;;;;;;;20.40;65.00;99890.19;12224287;19;20018;-80
2022/09/06 02:56:16;;;;;;;3.90;2.33;;;;;;;20.47;65.19;99895.38;12197132;19;20031;-80
2022/09/06 03:00:18;;;;;;;4.32;2.33;;;;;;;20.52;65.27;99880.44;12221182;19;20014;-79
2022/09/06 03:04:20;;;;;;;4.95;2.15;;;;;;;20.44;66.93;99854.84;12216447;19;20009;-80
2022/09/06 03:08:25;;;;;;;6.55;2.35;;;;;;;20.42;67.07;99836.72;12201217;19;20003;-80
2022/09/06 03:12:27;;;;;;;3.60;2.05;;;;;;;20.41;67.30;99830.31;12220620;19;20026;-80
2022/09/06 03:16:28;;;;;;;7.97;2.25;;;;;;;20.41;67.71;99824.69;12222638;19;20019;-79
2022/09/06 03:20:31;;;;;;;3.45;2.10;;;;;;;20.35;71.12;99836.34;12203026;19;20011;-80
2022/09/06 03:24:37;;;;;;;3.28;2.30;;;;;;;20.29;71.38;99846.81;12223438;19;20006;-79
2022/09/06 03:28:39;;;;;;;5.95;2.35;;;;;;;20.19;72.60;99828.25;12221124;19;20033;-80
2022/09/06 03:32:41;;;;;;;3.37;2.20;;;;;;;20.07;74.54;99816.78;12197744;19;20907;-79
2022/09/06 03:36:42;;;;;;;3.75;2.38;;;;;;;19.92;76.11;99783.56;12212569;19;20145;-79
2022/09/06 03:40:46;;;;;;;6.38;2.22;;;;;;;19.84;77.49;99787.94;12215878;19;20070;-79
2022/09/06 03:44:47;;;;;;;5.57;2.42;;;;;;;19.76;78.23;99780.25;12195166;19;20006;-81
2022/09/06 03:48:49;;;;;;;3.47;2.47;;;;;;;19.68;79.03;99772.59;12222808;19;20011;-80
2022/09/06 03:52:51;;;;;;;3.38;2.38;;;;;;;19.68;78.88;99755.84;12216283;19;20543;-80
2022/09/06 03:56:52;;;;;;;3.83;2.38;;;;;;;19.72;77.96;99771.69;12185785;19;20042;-79
2022/09/06 04:01:06;;;;;;;4.68;2.65;;;;;;;19.68;80.69;99761.41;12208327;19;20464;-78
2022/09/06 04:05:08;;;;;;;5.90;2.55;;;;;;;19.61;81.71;99753.44;12192930;19;20014;-78
2022/09/06 04:09:10;;;;;;;4.30;2.40;;;;;;;19.48;83.83;99752.31;12210281;19;20008;-80
2022/09/06 04:13:11;;;;;;;3.75;2.75;;;;;;;19.44;84.58;99754.03;12213229;19;20015;-79
2022/09/06 04:17:13;;;;;;;4.22;2.25;;;;;;;19.42;85.93;99759.09;12192087;19;20388;-78
2022/09/06 04:21:15;;;;;;;4.30;2.80;;;;;;;19.43;85.35;99743.19;12211096;19;20007;-79
2022/09/06 04:25:16;;;;;;;5.57;2.58;;;;;;;19.38;86.56;99734.91;12212935;19;20016;-80
2022/09/06 04:29:18;;;;;;;4.18;2.65;;;;;;;19.34;86.60;99740.28;12198113;19;20012;-80
2022/09/06 04:33:24;;;;;;;5.40;2.58;;;;;;;19.33;86.82;99738.63;12215898;19;20074;-79
2022/09/06 04:37:26;;;;;;;7.38;2.38;;;;;;;19.25;87.58;99737.38;12211053;19;20003;-78
2022/09/06 04:41:27;;;;;;;11.77;2.72;;;;;;;19.16;88.69;99744.00;12188566;19;20098;-79
2022/09/06 04:45:29;;;;;;;6.00;2.30;;;;;;;19.06;88.33;99751.41;12208536;19;20094;-79
2022/09/06 04:49:31;;;;;;;6.15;2.60;;;;;;;19.00;88.49;99746.25;12212706;19;20081;-78
2022/09/06 04:53:32;;;;;;;6.15;2.38;;;;;;;18.91;88.79;99748.91;12193617;19;20113;-78
2022/09/06 04:57:34;;;;;;;5.10;2.85;;;;;;;18.84;88.62;99748.50;12216146;19;20014;-79
2022/09/06 05:01:35;;;;;;;5.05;2.45;;;;;;;18.81;88.21;99754.69;12220234;19;20081;-78
2022/09/06 05:05:37;;;;;;;5.50;2.75;;;;;;;18.81;89.22;99760.28;12196459;19;20011;-78
2022/09/06 05:09:39;;;;;;;3.95;2.22;;;;;;;18.85;88.11;99766.88;12219606;19;20011;-79
2022/09/06 05:13:41;;;;;;;4.95;2.33;;;;;;;18.88;88.12;99774.66;12228155;19;20010;-78
2022/09/06 05:17:43;;;;;;;4.75;2.60;;;;;;;18.91;87.59;99779.63;12213900;19;20014;-78
2022/09/06 05:21:44;;;;;;;4.78;2.50;;;;;;;18.92;87.96;99786.88;12223006;19;20816;-78
2022/09/06 05:25:47;;;;;;;4.82;2.65;;;;;;;18.88;88.95;99802.56;12220745;19;20467;-78
2022/09/06 05:29:48;;;;;;;4.45;2.42;;;;;;;18.82;88.66;99807.41;12192806;19;20574;-78
2022/09/06 05:33:51;;;;;;;4.75;3.20;;;;;;;18.76;90.32;99822.59;12210936;19;20014;-78
2022/09/06 05:37:53;;;;;;;;;;;;;;;18.78;89.79;99836.25;12214168;19;20090;-78
2022/09/06 05:41:54;;;;;;;22.80;3.67;;;;;;;18.87;88.94;99852.00;12192883;19;19974;-78
2022/09/06 05:45:56;;;;;;;4.07;2.67;;;;;;;18.98;89.06;99840.69;12208866;19;20816;-77
2022/09/06 05:49:58;;;;;;;7.00;2.67;;;;;;;19.09;89.74;99845.75;12200991;19;20018;-77
2022/09/06 05:54:00;;;;;;;9.70;2.93;;;;;;;19.21;89.31;99847.25;12172405;19;20031;-77
2022/09/06 05:58:02;;;;;;;4.95;2.75;;;;;;;19.29;89.63;99849.34;12186126;19;20376;-77
2022/09/06 06:02:05;;;;;;;6.05;2.90;;;;;;;19.33;89.18;99858.75;12213732;19;20006;-78
2022/09/06 06:06:08;;;;;;;6.32;3.00;;;;;;;19.42;89.12;99864.47;12200634;19;20018;-78
2022/09/06 06:10:10;;;;;;;6.33;2.83;;;;;;;19.47;89.02;99862.41;12216202;19;20021;-78
2022/09/06 06:14:12;;;;;;;4.70;2.70;;;;;;;19.52;88.69;99879.09;12194750;19;20083;-77
2022/09/06 06:18:14;;;;;;;4.15;3.15;;;;;;;19.59;88.77;99876.72;12193973;19;20028;-77
2022/09/06 06:22:16;;;;;;;4.07;2.80;;;;;;;19.66;88.53;99881.09;12214794;19;20011;-78
2022/09/06 06:26:17;;;;;;;6.10;3.47;;;;;;;19.70;88.36;99876.56;12189750;19;20010;-77
2022/09/06 06:30:19;;;;;;;3.45;2.70;;;;;;;19.76;87.93;99880.91;12212842;19;20010;-77
2022/09/06 06:34:21;;;;;;;4.60;2.80;;;;;;;19.83;87.93;99881.31;12216334;19;20007;-78
2022/09/06 06:38:23;;;;;;;5.13;2.83;;;;;;;19.91;87.43;99872.22;12190655;19;20027;-78
2022/09/06 06:42:24;;;;;;;7.85;3.17;;;;;;;19.98;86.72;99871.78;12208698;19;20023;-77
2022/09/06 06:46:30;;;;;;;5.57;2.90;;;;;;;20.10;86.18;99868.47;12203321;19;20011;-78
2022/09/06 06:50:31;;;;;;;5.05;3.60;;;;;;;20.24;84.92;99875.72;12187957;19;20566;-78
2022/09/06 06:54:36;;;;;;;4.30;3.00;;;;;;;20.44;83.17;99877.25;12204762;19;20007;-77
2022/09/06 06:58:37;;;;;;;4.90;3.42;;;;;;;20.68;81.50;99879.81;12208391;19;20570;-77
2022/09/06 07:02:39;;;;;;;6.00;3.38;;;;;;;20.83;79.71;99886.19;12186163;19;20035;-78
2022/09/06 07:06:48;;;;;;;7.93;3.13;;;;;;;21.01;78.75;99876.78;12209631;19;20032;-77
2022/09/06 07:11:12;;;;;;;4.30;3.40;;;;;;;21.09;78.33;99883.59;12182595;19;20010;-77
2022/09/06 07:15:14;;;;;;;7.03;4.25;;;;;;;21.16;78.06;99883.97;12201404;19;20077;-78
2022/09/06 07:19:15;;;;;;;6.55;3.33;;;;;;;21.37;77.75;99884.31;12206545;19;20042;-78
2022/09/06 07:23:37;;;;;;;7.88;3.85;;;;;;;21.58;76.63;99893.84;12185783;19;20018;-78
2022/09/06 07:28:02;;;;;;;7.22;3.40;;;;;;;21.81;76.24;99899.41;12207940;19;20011;-77
2022/09/06 07:32:06;;;;;;;15.07;3.80;;;;;;;22.10;75.03;99890.47;12218929;19;20011;-78
2022/09/06 07:36:11;;;;;;;8.57;3.88;;;;;;;22.12;74.90;99899.34;12192470;19;20010;-77
2022/09/06 07:40:12;;;;;;;36.45;4.72;;;;;;;22.21;75.07;99907.84;12216447;19;20483;-77
2022/09/06 07:44:14;;;;;;;54.88;6.53;;;;;;;22.35;74.27;99902.94;12191782;19;20112;-77
2022/09/06 07:48:16;;;;;;;45.43;7.20;;;;;;;22.58;73.61;99900.84;12217181;19;20015;-78
2022/09/06 07:52:18;;;;;;;12.23;4.45;;;;;;;22.92;72.00;99896.41;12216531;19;20023;-77
2022/09/06 07:56:39;;;;;;;14.27;4.13;;;;;;;23.25;71.01;99884.66;12191795;19;20034;-78
2022/09/06 08:00:41;;;;;;;6.05;4.53;;;;;;;23.35;68.46;99889.94;12214955;19;20018;-78
2022/09/06 08:04:43;;;;;;;6.80;4.40;;;;;;;23.43;67.93;99897.53;12209556;19;20010;-77
2022/09/06 08:08:52;;;;;;;8.57;5.10;;;;;;;23.63;67.01;99896.81;12194975;19;20015;-77
2022/09/06 08:12:55;;;;;;;11.35;5.05;;;;;;;23.82;65.39;99896.44;12208950;19;20018;-77
2022/09/06 08:16:57;;;;;;;6.88;4.75;;;;;;;23.97;65.66;99894.25;12216100;19;20655;-77
2022/09/06 08:21:13;;;;;;;11.90;4.20;;;;;;;24.11;64.70;99895.66;12197269;19;20404;-78
2022/09/06 08:25:14;;;;;;;8.25;4.40;;;;;;;24.16;64.45;99905.09;12217154;19;20026;-78
2022/09/06 08:29:18;;;;;;;7.60;3.90;;;;;;;24.30;63.88;99898.06;12206248;19;20018;-77
2022/09/06 08:33:20;;;;;;;7.30;4.13;;;;;;;24.65;62.87;99899.88;12226068;19;20030;-78
2022/09/06 08:37:22;;;;;;;6.90;4.47;;;;;;;24.86;61.40;99892.25;12225002;19;20014;-78
2022/09/06 08:41:35;;;;;;;8.20;4.07;;;;;;;24.95;60.07;99895.00;12203544;19;20531;-78
2022/09/06 08:45:40;;;;;;;12.73;3.97;;;;;;;25.18;58.68;99884.22;12224370;19;20014;-78
2022/09/06 08:49:44;;;;;;;5.00;3.70;;;;;;;25.25;57.53;99887.28;12227166;19;20098;-77
2022/09/06 08:53:46;;;;;;;4.78;3.08;;;;;;;25.35;56.70;99886.03;12203599;19;20014;-78
2022/09/06 08:57:59;;;;;;;4.45;3.10;;;;;;;25.62;55.53;99887.41;12226876;19;20023;-77
2022/09/06 09:02:13;;;;;;;7.85;3.50;;;;;;;25.97;54.86;99884.19;12221912;19;20468;-77
2022/09/06 09:06:15;;;;;;;4.63;3.13;;;;;;;26.18;53.92;99884.09;12200540;19;20540;-78
2022/09/06 09:10:29;;;;;;;7.80;3.30;;;;;;;26.40;52.58;99875.13;12222219;19;20038;-78
2022/09/06 09:14:36;;;;;;;4.38;2.78;;;;;;;26.64;51.48;99877.13;12195743;19;20003;-78
2022/09/06 09:18:43;;;;;;;5.10;3.25;;;;;;;26.89;50.85;99868.56;12225598;19;20076;-78
2022/09/06 09:22:45;;;;;;;5.63;3.08;;;;;;;26.90;50.36;99871.06;12222677;19;20010;-78
2022/09/06 09:27:01;;;;;;;18.90;4.63;;;;;;;27.09;49.83;99849.78;12202952;19;20071;-78
2022/09/06 09:31:03;;;;;;;5.93;2.92;;;;;;;27.25;49.79;99856.34;12225017;19;20073;-78
2022/09/06 09:35:14;;;;;;;6.80;2.88;;;;;;;27.39;48.50;99847.41;12222559;19;20017;-78
2022/09/06 09:39:17;;;;;;;4.38;3.13;;;;;;;27.51;47.89;99841.69;12202658;19;20035;-78
2022/09/06 09:43:25;;;;;;;4.63;3.37;;;;;;;27.69;47.73;99840.16;12226812;19;20428;-77
2022/09/06 09:47:31;;;;;;;7.47;3.10;;;;;;;27.92;47.00;99848.03;12200896;19;21146;-78
2022/09/06 09:51:46;;;;;;;5.18;3.55;;;;;;;27.94;46.35;99834.34;12223665;19;20015;-78
2022/09/06 09:55:55;;;;;;;6.95;3.88;;;;;;;27.85;46.82;99836.53;12223384;19;20003;-78
2022/09/06 10:00:01;;;;;;;3.72;2.83;;;;;;;28.06;46.61;99834.22;12204085;19;20106;-78
2022/09/06 10:04:10;;;;;;;5.70;3.10;;;;;;;28.28;45.58;99826.25;12219245;19;20011;-78
2022/09/06 10:08:33;;;;;;;7.22;3.15;;;;;;;28.30;45.41;99823.88;12201240;19;20014;-78
2022/09/06 10:12:40;;;;;;;5.20;2.72;;;;;;;28.34;45.27;99819.09;12218358;19;20124;-78
2022/09/06 10:16:44;;;;;;;11.90;3.60;;;;;;;28.53;44.29;99810.66;12219841;19;20006;-78
2022/09/06 10:20:52;;;;;;;5.65;3.10;;;;;;;28.85;43.81;99807.69;12202270;19;20015;-78
2022/09/06 10:25:04;;;;;;;6.00;3.30;;;;;;;29.23;43.46;99808.88;12219823;19;20041;-78
2022/09/06 10:29:10;;;;;;;5.22;3.33;;;;;;;29.47;42.72;99808.53;12221877;19;20372;-78
2022/09/06 10:33:26;;;;;;;11.25;3.25;;;;;;;29.65;41.08;99808.88;12201248;19;20006;-78
2022/09/06 10:37:47;;;;;;;20.10;3.15;;;;;;;29.68;40.35;99804.47;12220991;19;20019;-79
2022/09/06 10:42:04;;;;;;;6.97;2.92;;;;;;;29.64;40.17;99801.56;12198346;19;20431;-79
2022/09/06 10:46:14;;;;;;;4.88;2.80;;;;;;;29.76;40.65;99792.03;12219987;19;20003;-78
2022/09/06 10:50:16;;;;;;;5.57;2.70;;;;;;;30.03;39.92;99792.06;12196463;19;20539;-78
2022/09/06 10:54:22;;;;;;;45.22;4.63;;;;;;;30.13;39.01;99792.25;12211304;19;20035;-78
2022/09/06 10:58:28;;;;;;;6.03;2.85;;;;;;;30.26;38.55;99792.84;12211938;19;20051;-79
2022/09/06 11:02:55;;;;;;;6.85;2.55;;;;;;;30.39;38.91;99790.59;12192398;19;20804;-79
2022/09/06 11:07:30;;;;;;;4.60;2.72;;;;;;;30.65;38.65;99792.56;12212977;19;20010;-80
2022/09/06 11:11:39;;;;;;;6.43;2.75;;;;;;;30.60;38.52;99784.38;12191796;19;20086;-78
2022/09/06 11:15:53;;;;;;;5.63;3.28;;;;;;;30.72;38.20;99789.81;12210526;19;20037;-79
2022/09/06 11:20:12;;;;;;;6.10;2.83;;;;;;;30.95;37.26;99783.22;12228655;19;20014;-79
2022/09/06 11:24:26;;;;;;;6.00;2.97;;;;;;;30.93;37.68;99769.38;12230678;19;20007;-82
2022/09/06 11:28:36;;;;;;;13.35;3.53;;;;;;;31.05;37.83;99769.09;12234446;19;20014;-80
2022/09/06 11:32:47;;;;;;;6.82;3.15;;;;;;;31.11;37.11;99763.88;12196809;19;20023;-80
2022/09/06 11:36:56;;;;;;;8.53;2.83;;;;;;;31.29;37.01;99756.38;12218172;19;20010;-82
2022/09/06 11:41:01;;;;;;;47.33;5.60;;;;;;;31.58;36.66;99756.66;12219122;19;20002;-80
2022/09/06 11:45:02;;;;;;;7.63;3.22;;;;;;;32.05;35.55;99757.84;12198458;19;20028;-80
2022/09/06 11:49:28;;;;;;;38.10;4.97;;;;;;;32.74;34.95;99748.47;12223269;19;20011;-80
2022/09/06 11:53:32;;;;;;;11.52;3.08;;;;;;;33.40;34.32;99745.38;12204753;19;20031;-82
2022/09/06 11:57:34;;;;;;;16.75;4.30;;;;;;;33.95;33.00;99742.16;12224698;19;20018;-81
2022/09/06 12:01:37;;;;;;;14.20;3.97;;;;;;;34.30;32.16;99749.06;12239911;19;20367;-81
2022/09/06 12:06:16;;;;;;;5.80;3.38;;;;;;;34.64;31.46;99734.25;12213305;19;20013;-80
2022/09/06 12:10:45;;;;;;;10.35;4.10;;;;;;;34.96;30.90;99741.88;12234500;19;20006;-82
2022/09/06 12:14:48;;;;;;;4.00;3.20;;;;;;;35.38;29.97;99735.88;12206081;19;20018;-81
2022/09/06 12:18:49;;;;;;;6.28;3.20;;;;;;;35.74;29.18;99721.28;12234436;19;20007;-80
2022/09/06 12:22:52;;;;;;;19.33;3.05;;;;;;;36.20;27.88;99719.19;12233886;19;20010;-80
2022/09/06 12:27:15;;;;;;;3.58;2.83;;;;;;;35.96;27.85;99724.75;12194424;19;20017;-78
2022/09/06 12:31:27;;;;;;;17.63;3.50;;;;;;;36.41;27.12;99721.00;12216428;19;20007;-78
2022/09/06 12:35:31;;;;;;;9.25;2.75;;;;;;;36.83;26.65;99702.47;12193519;19;20086;-78
2022/09/06 12:39:57;;;;;;;3.22;2.42;;;;;;;37.10;25.67;99702.50;12213396;19;20014;-77
2022/09/06 12:44:13;;;;;;;171.88;18.67;;;;;;;37.60;25.65;99703.75;12224989;19;20011;-78
2022/09/06 12:48:27;;;;;;;3.72;1.95;;;;;;;37.74;24.87;99700.63;12256811;19;20018;-79
2022/09/06 12:52:30;;;;;;;3.28;2.53;;;;;;;38.22;24.58;99699.34;12274990;19;20539;-83
2022/09/06 12:56:35;;;;;;;2.58;1.80;;;;;;;38.32;23.36;99691.75;12254801;19;19996;-81
2022/09/06 13:00:46;;;;;;;6.50;2.10;;;;;;;38.80;23.69;99686.66;12248001;19;20009;-80
2022/09/06 13:04:52;;;;;;;4.70;2.42;;;;;;;39.35;23.23;99685.78;12223661;19;20077;-80
2022/09/06 13:08:56;;;;;;;2.90;2.10;;;;;;;39.40;23.30;99684.44;12207353;19;20101;-80
2022/09/06 13:12:58;;;;;;;6.95;2.15;;;;;;;39.69;22.09;99675.06;12220828;19;20022;-80
2022/09/06 13:17:00;;;;;;;24.10;2.97;;;;;;;39.73;21.94;99676.56;12214609;19;20007;-80
2022/09/06 13:21:05;;;;;;;3.70;2.58;;;;;;;40.31;21.68;99670.06;12198403;19;20027;-80
2022/09/06 13:25:15;;;;;;;8.52;2.85;;;;;;;40.41;21.54;99665.25;12216117;19;20027;-80
2022/09/06 13:29:23;;;;;;;5.50;2.45;;;;;;;40.75;21.50;99645.25;12203107;19;20010;-80
2022/09/06 13:33:25;;;;;;;6.55;2.15;;;;;;;40.78;21.19;99646.38;12223474;19;20074;-81
2022/09/06 13:37:34;;;;;;;3.35;2.30;;;;;;;40.67;21.22;99640.94;12218017;19;20475;-80
2022/09/06 13:41:39;;;;;;;4.63;2.10;;;;;;;40.50;21.02;99645.97;12187670;19;20010;-80
2022/09/06 13:45:41;;;;;;;3.85;2.65;;;;;;;40.62;20.66;99641.50;12220895;19;20013;-80
2022/09/06 13:49:42;;;;;;;5.40;2.05;;;;;;;41.00;20.78;99640.72;12221577;19;20050;-81
2022/09/06 13:53:44;;;;;;;10.80;2.58;;;;;;;40.48;20.81;99639.84;12197996;19;20759;-79
2022/09/06 13:57:46;;;;;;;5.18;2.35;;;;;;;40.12;20.87;99645.03;12218626;19;20098;-79
2022/09/06 14:01:57;;;;;;;4.63;2.65;;;;;;;40.22;20.97;99633.22;12223773;19;20007;-80
2022/09/06 14:05:59;;;;;;;8.27;3.40;;;;;;;39.07;22.29;99628.84;12195433;19;20886;-80
2022/09/06 14:10:01;;;;;;;5.25;2.30;;;;;;;37.76;23.21;99629.13;12210242;19;20445;-80
2022/09/06 14:14:04;;;;;;;6.78;2.33;;;;;;;36.28;24.47;99635.50;12213292;19;20011;-79
2022/09/06 14:18:05;;;;;;;5.55;2.50;;;;;;;35.23;25.04;99631.25;12189071;19;20030;-79
2022/09/06 14:22:12;;;;;;;2.97;2.30;;;;;;;34.71;25.66;99628.31;12213648;19;20263;-79
2022/09/06 14:26:14;;;;;;;5.95;2.90;;;;;;;34.12;26.50;99626.16;12190019;19;20011;-79
2022/09/06 14:30:16;;;;;;;3.80;2.47;;;;;;;33.65;27.67;99618.91;12212715;19;20019;-83
2022/09/06 14:34:17;;;;;;;3.60;2.42;;;;;;;33.55;28.03;99617.69;12211966;19;20077;-79
2022/09/06 14:38:19;;;;;;;4.68;2.53;;;;;;;33.47;28.34;99614.03;12197111;19;20011;-79
2022/09/06 14:42:23;;;;;;;;;;;;;;;33.74;27.97;99605.03;12221164;19;20002;-80
2022/09/06 14:46:28;;;;;;;3.63;2.15;;;;;;;34.16;27.11;99595.50;12213783;19;19922;-79
2022/09/06 14:50:30;;;;;;;3.63;2.10;;;;;;;34.49;26.67;99588.38;12201233;19;20024;-79
2022/09/06 14:54:32;;;;;;;;;;;;;;;34.45;26.87;99581.06;12220548;19;20028;-79
2022/09/06 14:58:36;;;;;;;;;;;;;;;34.82;26.70;99574.69;12221813;19;19911;-80
2022/09/06 15:02:38;;;;;;;8.02;2.30;;;;;;;35.37;26.04;99567.28;12198756;19;19910;-80
2022/09/06 15:06:43;;;;;;;3.28;2.42;;;;;;;34.72;26.56;99571.91;12213611;19;20034;-80
2022/09/06 15:10:53;;;;;;;7.53;2.80;;;;;;;34.30;26.80;99562.31;12220151;19;20003;-80
2022/09/06 15:14:54;;;;;;;3.22;2.53;;;;;;;33.89;27.35;99545.78;12194462;19;20014;-80
2022/09/06 15:18:56;;;;;;;;;;;;;;;33.03;27.95;99538.19;12213009;19;20050;-80
2022/09/06 15:23:02;;;;;;;4.57;2.60;;;;;;;32.27;28.43;99541.31;12222420;19;20403;-80
2022/09/06 15:27:23;;;;;;;5.82;2.50;;;;;;;31.65;29.45;99545.13;12201609;19;20074;-82
2022/09/06 15:31:26;;;;;;;6.03;3.10;;;;;;;31.32;30.02;99544.94;12223876;19;20725;-81
2022/09/06 15:35:27;;;;;;;6.78;2.75;;;;;;;31.16;30.52;99541.53;12197360;19;20010;-80
2022/09/06 15:39:29;;;;;;;3.83;2.55;;;;;;;30.90;31.43;99545.41;12221099;19;20027;-80
2022/09/06 15:43:32;;;;;;;6.55;3.22;;;;;;;30.64;32.60;99550.03;12222266;19;20013;-80
2022/09/06 15:47:34;;;;;;;6.82;3.53;;;;;;;30.37;33.43;99542.84;12200959;19;20489;-80
2022/09/06 15:51:37;;;;;;;7.53;3.40;;;;;;;30.14;33.83;99535.28;12226513;19;20116;-81
2022/09/06 15:55:54;;;;;;;6.97;3.15;;;;;;;29.95;34.01;99536.28;12240452;19;20011;-82
2022/09/06 15:59:56;;;;;;;7.18;3.20;;;;;;;29.82;34.30;99546.25;12219033;19;20018;-84
2022/09/06 16:04:02;;;;;;;7.13;3.47;;;;;;;29.70;34.47;99544.47;12238982;19;20463;-83
2022/09/06 16:08:04;;;;;;;6.70;3.05;;;;;;;29.50;35.29;99545.78;12230594;19;20042;-79
2022/09/06 16:12:05;;;;;;;11.20;3.50;;;;;;;29.34;35.65;99554.50;12195677;19;20556;-80
2022/09/06 16:16:10;;;;;;;10.30;3.28;;;;;;;29.25;35.51;99568.16;12216190;19;20016;-79
2022/09/06 16:20:11;;;;;;;5.15;2.83;;;;;;;29.15;35.92;99557.44;12193779;19;20452;-79
2022/09/06 16:24:13;;;;;;;5.55;2.60;;;;;;;28.97;36.20;99549.44;12211658;19;20049;-79
2022/09/06 16:28:15;;;;;;;10.23;2.60;;;;;;;28.86;35.97;99554.13;12212395;19;20035;-79
2022/09/06 16:32:16;;;;;;;4.70;2.43;;;;;;;28.78;36.28;99561.66;12192885;19;20465;-80
2022/09/06 16:36:20;;;;;;;7.90;2.53;;;;;;;28.62;36.48;99575.16;12203274;19;20086;-79
2022/09/06 16:40:21;;;;;;;7.00;2.20;;;;;;;28.45;36.27;99576.47;12212362;19;20022;-79
2022/09/06 16:44:23;;;;;;;3.60;1.80;;;;;;;28.24;36.92;99578.88;12189881;19;20074;-78
2022/09/06 16:48:26;;;;;;;7.63;2.10;;;;;;;28.02;37.05;99586.94;12224108;19;20270;-79
2022/09/06 16:52:28;;;;;;;7.82;2.00;;;;;;;27.77;38.42;99597.69;12224698;19;20031;-79
2022/09/06 16:56:33;;;;;;;3.90;2.20;;;;;;;27.46;39.80;99590.94;12198000;19;20010;-78
2022/09/06 17:00:39;;;;;;;7.75;2.65;;;;;;;26.93;41.69;99589.59;12225273;19;20026;-79
2022/09/06 17:04:41;;;;;;;7.45;2.72;;;;;;;26.66;41.74;99591.34;12218019;19;20010;-80
2022/09/06 17:08:43;;;;;;;5.43;1.92;;;;;;;26.35;42.83;99587.22;12207980;19;20090;-81
2022/09/06 17:12:45;;;;;;;16.95;3.20;;;;;;;26.11;42.58;99605.13;12239591;19;20049;-80
2022/09/06 17:17:06;;;;;;;5.05;2.03;;;;;;;25.85;43.27;99623.34;12240216;19;20022;-81
2022/09/06 17:21:08;;;;;;;4.78;2.60;;;;;;;25.55;43.87;99634.06;12213499;19;20022;-80
2022/09/06 17:25:11;;;;;;;3.47;1.60;;;;;;;25.31;44.14;99636.88;12234790;19;20014;-81
2022/09/06 17:29:12;;;;;;;5.20;2.35;;;;;;;25.11;44.99;99652.75;12239981;19;20685;-80
2022/09/06 17:33:16;;;;;;;6.80;2.35;;;;;;;24.88;46.12;99663.63;12211322;19;20007;-78
2022/09/06 17:37:18;;;;;;;7.60;2.25;;;;;;;24.65;48.23;99671.66;12240374;19;20011;-78
2022/09/06 17:41:23;;;;;;;6.93;2.65;;;;;;;24.47;49.01;99645.66;12233820;19;20007;-78
2022/09/06 17:45:25;;;;;;;8.32;2.67;;;;;;;24.27;49.33;99665.06;12237487;19;20020;-79
2022/09/06 17:49:27;;;;;;;8.35;2.45;;;;;;;24.01;51.40;99682.16;12224101;19;20069;-79
2022/09/06 17:53:28;;;;;;;5.27;2.47;;;;;;;23.85;52.64;99672.66;12207720;19;20031;-81
2022/09/06 17:57:31;;;;;;;6.13;2.53;;;;;;;23.56;52.93;99651.81;12225114;19;20023;-79
2022/09/06 18:01:36;;;;;;;5.78;2.70;;;;;;;23.40;52.07;99639.50;12221069;19;20342;-79
2022/09/06 18:05:38;;;;;;;5.40;2.47;;;;;;;23.30;52.77;99628.66;12204856;19;20016;-79
2022/09/06 18:09:40;;;;;;;6.97;2.30;;;;;;;23.27;51.77;99612.47;12222181;19;20444;-80
2022/09/06 18:13:43;;;;;;;4.60;2.53;;;;;;;23.19;52.40;99592.50;12227341;19;22535;-78
2022/09/06 18:17:45;;;;;;;4.00;2.05;;;;;;;23.08;53.27;99599.69;12195735;19;20007;-79
2022/09/06 18:21:47;;;;;;;3.95;2.20;;;;;;;22.98;52.88;99595.25;12215727;19;20077;-78
2022/09/06 18:26:03;;;;;;;3.10;2.03;;;;;;;22.84;54.03;99583.38;12219705;19;20446;-79
2022/09/06 18:30:05;;;;;;;5.78;2.55;;;;;;;22.66;54.56;99588.25;12202093;19;20011;-78
2022/09/06 18:34:07;;;;;;;2.93;1.53;;;;;;;22.53;54.75;99594.91;12223887;19;20011;-78
2022/09/06 18:38:10;;;;;;;6.57;1.65;;;;;;;22.39;54.87;99589.50;12231019;19;20012;-80
2022/09/06 18:42:11;;;;;;;6.57;2.13;;;;;;;22.36;55.13;99589.34;12209913;19;20011;-80
2022/09/06 18:46:13;;;;;;;8.20;2.50;;;;;;;22.29;54.60;99595.47;12229997;19;20006;-81
2022/09/06 18:50:15;;;;;;;8.82;1.92;;;;;;;22.20;54.09;99595.50;12216557;19;20010;-82
2022/09/06 18:54:18;;;;;;;3.97;1.45;;;;;;;22.13;54.10;99588.69;12233278;19;20007;-81
2022/09/06 18:58:20;;;;;;;3.70;1.73;;;;;;;22.03;54.70;99587.06;12230188;19;20006;-81
2022/09/06 19:02:22;;;;;;;5.07;1.87;;;;;;;22.02;54.37;99585.41;12206543;19;20128;-80